Time;durP1;ratioP1;P1;durP2;ratioP2;P2;SDS_P1;SDS_P2;PMS_P1;PMS_P2;Temp;Humidity;BMP_temperature;BMP_pressure;BME280_temperature;BME280_humidity;BME280_pressure;Samples;Min_cycle;Max_cycle;Signal;HPM_P1;HPM_P2
2021/11/09 00:01:53;;;;;;;9.30;4.15;;;;;;;12.18;85.59;101319.13;5004033;28;19914;-80
2021/11/09 00:04:44;;;;;;;3.78;2.53;;;;;;;12.20;85.88;101323.13;4984682;28;20053;-81
2021/11/09 00:07:36;;;;;;;8.95;2.92;;;;;;;12.20;86.19;101316.88;4984268;28;20053;-80
2021/11/09 00:10:23;;;;;;;4.85;3.20;;;;;;;12.21;86.31;101329.41;5002986;28;20049;-80
2021/11/09 00:13:08;;;;;;;6.63;3.63;;;;;;;12.20;86.32;101328.59;4985773;28;20046;-80
2021/11/09 00:15:53;;;;;;;8.07;2.75;;;;;;;12.20;86.78;101319.59;4982175;28;20045;-81
2021/11/09 00:18:38;;;;;;;5.60;3.47;;;;;;;12.18;86.63;101317.22;4973910;28;20058;-80
2021/11/09 00:21:23;;;;;;;6.13;2.90;;;;;;;12.14;86.90;101313.47;4967148;28;20045;-80
2021/11/09 00:24:08;;;;;;;3.78;2.28;;;;;;;12.12;86.83;101312.19;4978552;28;20057;-81
2021/11/09 00:26:52;;;;;;;7.13;2.78;;;;;;;12.12;86.88;101312.19;4993813;28;20619;-80
2021/11/09 00:29:38;;;;;;;5.63;2.30;;;;;;;12.10;87.03;101314.41;4971212;28;20057;-80
2021/11/09 00:32:24;;;;;;;3.45;2.83;;;;;;;12.10;87.20;101311.69;4966513;28;20421;-81
2021/11/09 00:35:14;;;;;;;2.90;1.98;;;;;;;12.14;86.90;101320.88;4975823;28;21004;-81
2021/11/09 00:38:01;;;;;;;4.50;2.33;;;;;;;12.07;86.86;101315.03;4978811;28;20045;-80
2021/11/09 00:40:46;;;;;;;6.65;3.10;;;;;;;12.07;87.03;101315.03;4998942;28;20069;-79
2021/11/09 00:43:32;;;;;;;5.50;2.65;;;;;;;12.07;87.13;101315.03;5002161;28;20049;-80
2021/11/09 00:46:16;;;;;;;4.90;2.90;;;;;;;12.06;87.39;101314.22;4996328;28;20516;-81
2021/11/09 00:49:01;;;;;;;4.45;2.13;;;;;;;12.06;87.23;101327.84;4992018;28;20049;-80
2021/11/09 00:51:46;;;;;;;;;;;;;;;12.04;87.20;101326.56;4983603;28;20062;-81
2021/11/09 00:54:35;;;;;;;4.13;2.93;;;;;;;12.00;86.52;101334.53;4979671;28;19914;-80
2021/11/09 00:57:21;;;;;;;6.65;3.28;;;;;;;11.95;85.97;101323.75;4988985;28;20058;-80
2021/11/09 01:00:06;;;;;;;5.32;3.05;;;;;;;11.99;86.36;101336.47;4980451;28;20053;-80
2021/11/09 01:02:52;;;;;;;7.25;3.10;;;;;;;12.00;86.83;101334.53;4996876;28;20049;-81
2021/11/09 01:05:38;;;;;;;6.07;2.85;;;;;;;11.99;87.07;101344.63;4983992;28;20053;-80
2021/11/09 01:08:23;;;;;;;6.10;2.60;;;;;;;11.99;87.35;101335.66;4985514;28;20066;-80
2021/11/09 01:11:08;;;;;;;;;;;;;;;11.99;87.24;101341.91;4986344;28;20587;-80
2021/11/09 01:13:53;;;;;;;5.85;2.53;;;;;;;11.99;87.20;101346.56;4998409;28;19914;-79
2021/11/09 01:16:39;;;;;;;;;;;;;;;11.98;87.65;101345.78;4995841;28;20049;-80
2021/11/09 01:19:24;;;;;;;6.45;3.00;;;;;;;11.97;87.62;101349.59;4989575;28;20297;-79
2021/11/09 01:22:10;;;;;;;4.15;2.60;;;;;;;11.95;87.04;101349.09;4979597;28;20046;-80
2021/11/09 01:24:55;;;;;;;2.78;2.33;;;;;;;11.95;87.24;101346.38;4976560;28;20045;-80
2021/11/09 01:27:41;;;;;;;6.53;2.28;;;;;;;11.94;87.36;101346.69;4989701;28;20065;-79
2021/11/09 01:30:27;;;;;;;4.10;2.67;;;;;;;11.94;87.41;101355.66;4986296;28;20053;-79
2021/11/09 01:33:12;;;;;;;4.25;2.90;;;;;;;11.93;87.36;101348.63;4976351;28;20446;-79
2021/11/09 01:35:57;;;;;;;6.88;2.88;;;;;;;11.92;87.46;101351.66;4967142;28;20045;-80
2021/11/09 01:38:42;;;;;;;;;;;;;;;11.94;87.62;101352.94;4986435;28;20054;-80
2021/11/09 01:41:27;;;;;;;4.03;2.60;;;;;;;11.94;87.61;101341.22;4971926;28;19914;-79
2021/11/09 01:44:12;;;;;;;9.80;2.88;;;;;;;11.94;87.53;101342.03;4983970;28;20066;-80
2021/11/09 01:46:57;;;;;;;7.05;2.40;;;;;;;11.95;87.23;101342.84;4983316;28;20054;-80
2021/11/09 01:49:43;;;;;;;;;;;;;;;11.97;87.27;101338.72;4994246;28;20053;-79
2021/11/09 01:52:28;;;;;;;5.72;3.25;;;;;;;11.87;85.79;101338.94;4970704;28;19922;-80
2021/11/09 01:55:14;;;;;;;;;;;;;;;11.87;85.69;101340.88;4979517;28;20050;-80
2021/11/09 01:57:59;;;;;;;;;;;;;;;11.87;86.33;101340.88;4984919;28;20399;-80
2021/11/09 02:00:54;;;;;;;4.15;2.58;;;;;;;11.81;85.77;101342.91;4998213;28;19914;-80
2021/11/09 02:03:43;;;;;;;2.75;2.25;;;;;;;11.75;85.29;101335.94;4982560;28;20049;-81
2021/11/09 02:06:29;;;;;;;3.95;2.38;;;;;;;11.73;84.30;101342.84;5000311;28;20053;-80
2021/11/09 02:09:18;;;;;;;4.78;2.97;;;;;;;11.75;85.11;101341.41;5002862;28;20424;-81
2021/11/09 02:12:03;;;;;;;3.88;2.10;;;;;;;11.73;85.34;101340.13;4994022;28;20440;-80
2021/11/09 02:14:48;;;;;;;4.90;2.28;;;;;;;11.71;84.99;101340.38;4980521;28;20045;-80
2021/11/09 02:17:37;;;;;;;5.85;2.90;;;;;;;11.67;83.42;101333.94;4982941;28;20053;-80
2021/11/09 02:20:23;;;;;;;5.15;2.28;;;;;;;11.70;84.42;101337.94;4982292;28;20049;-80
2021/11/09 02:23:08;;;;;;;5.38;2.33;;;;;;;11.70;84.67;101338.75;4965884;28;20058;-80
2021/11/09 02:25:54;;;;;;;7.38;3.17;;;;;;;11.66;83.92;101331.50;4969958;28;20038;-79
2021/11/09 02:28:40;;;;;;;5.75;2.17;;;;;;;11.68;84.62;101330.09;4983762;28;20054;-79
2021/11/09 02:31:26;;;;;;;4.95;2.28;;;;;;;11.71;85.46;101334.94;4970420;28;20119;-79
2021/11/09 02:34:12;;;;;;;4.07;2.55;;;;;;;11.72;86.20;101336.53;4987448;28;20616;-80
2021/11/09 02:36:56;;;;;;;3.25;1.67;;;;;;;11.73;86.71;101337.38;4971231;28;20054;-78
2021/11/09 02:39:41;;;;;;;4.43;2.17;;;;;;;11.74;86.80;101334.34;4984124;28;20045;-79
2021/11/09 02:42:32;;;;;;;4.00;1.70;;;;;;;11.76;86.86;101342.22;4989329;28;20069;-79
2021/11/09 02:45:23;;;;;;;3.50;2.40;;;;;;;11.73;87.05;101346.38;4985108;28;20532;-80
2021/11/09 02:48:13;;;;;;;5.32;2.47;;;;;;;11.72;86.93;101335.75;4984882;28;20531;-79
2021/11/09 02:51:10;;;;;;;3.38;2.00;;;;;;;11.70;87.17;101333.31;4987028;28;20053;-79
2021/11/09 02:54:02;;;;;;;4.38;1.80;;;;;;;11.68;87.37;101335.56;4975827;28;20049;-80
2021/11/09 02:56:58;;;;;;;3.70;2.03;;;;;;;11.66;87.17;101334.22;4987704;28;20589;-80
2021/11/09 03:00:50;;;;;;;4.22;2.03;;;;;;;11.64;87.48;101339.97;4982492;28;20046;-79
2021/11/09 03:03:10;;;;;;;3.95;2.05;;;;;;;11.62;87.49;101339.50;4980307;28;20408;-79
2021/11/09 03:08:47;;;;;;;5.07;3.03;;;;;;;11.62;87.54;101336.78;5000548;28;20050;-80
2021/11/09 03:11:33;;;;;;;3.60;1.95;;;;;;;11.61;87.70;101340.59;4988281;28;20045;-80
2021/11/09 03:14:20;;;;;;;2.30;2.03;;;;;;;11.64;87.90;101342.72;4989662;28;20057;-81
2021/11/09 03:17:14;;;;;;;2.78;1.98;;;;;;;11.65;87.92;101338.06;4980411;28;20049;-81
2021/11/09 03:20:01;;;;;;;1.80;1.38;;;;;;;11.61;88.07;101334.34;4984017;28;20058;-80
2021/11/09 03:47:06;;;;;;;8.40;3.30;;;;;;;11.51;87.73;101365.34;5002638;28;20053;-80
2021/11/09 03:49:52;;;;;;;2.78;1.92;;;;;;;11.50;87.67;101380.06;4999120;28;20050;-81
2021/11/09 03:52:44;;;;;;;4.07;2.13;;;;;;;11.51;87.90;101378.97;4976235;28;20161;-81
2021/11/09 03:58:37;;;;;;;3.22;1.90;;;;;;;11.50;88.14;101393.69;5001063;28;20624;-81
2021/11/09 04:01:27;;;;;;;3.65;2.13;;;;;;;11.46;87.87;101393.50;4996662;28;20409;-80
2021/11/09 04:13:22;;;;;;;4.70;2.55;;;;;;;11.42;88.31;101406.13;4989415;28;20054;-81
2021/11/09 04:19:24;;;;;;;2.67;1.50;;;;;;;11.39;88.83;101403.16;5000283;28;20049;-80
2021/11/09 04:37:34;;;;;;;4.65;1.98;;;;;;;11.30;84.38;101437.66;4977057;28;20532;-80
2021/11/09 05:01:12;;;;;;;6.45;2.20;;;;;;;11.02;81.36;101445.78;4979906;28;20417;-80
2021/11/09 05:10:04;;;;;;;4.32;1.45;;;;;;;11.18;86.37;101459.13;4977221;28;20050;-79
2021/11/09 05:12:49;;;;;;;3.58;2.15;;;;;;;11.20;87.29;101465.09;4994586;28;20045;-80
2021/11/09 05:15:33;;;;;;;5.90;2.22;;;;;;;11.20;87.71;101465.09;4994715;23;20553;-65
2021/11/09 05:18:19;;;;;;;2.45;1.75;;;;;;;11.11;86.53;101471.25;4959067;28;20526;-66
2021/11/09 05:21:04;;;;;;;3.42;2.13;;;;;;;11.18;87.72;101472.75;4964279;28;20050;-65
2021/11/09 05:23:49;;;;;;;4.13;1.63;;;;;;;11.09;86.37;101476.16;4965188;28;20049;-66
2021/11/09 05:26:37;;;;;;;2.65;1.38;;;;;;;11.15;86.92;101479.59;4963538;28;20058;-65
2021/11/09 05:29:22;;;;;;;2.40;1.55;;;;;;;11.18;87.75;101481.72;4953274;29;20058;-65
2021/11/09 05:32:07;;;;;;;;;;;;;;;11.21;88.37;101486.56;4958295;29;20043;-63
2021/11/09 05:34:51;;;;;;;4.60;2.40;;;;;;;11.20;87.78;101492.31;4965418;28;19918;-63
2021/11/09 05:37:41;;;;;;;1.38;1.10;;;;;;;11.23;88.45;101487.06;4960425;28;20053;-63
2021/11/09 05:40:37;;;;;;;2.25;1.55;;;;;;;11.25;88.92;101501.19;4972218;28;21253;-64
2021/11/09 05:43:22;;;;;;;4.78;3.10;;;;;;;11.14;86.70;101511.47;4981770;28;20045;-64
2021/11/09 05:46:08;;;;;;;2.75;1.58;;;;;;;11.21;88.36;101510.25;4974093;28;20058;-64
2021/11/09 05:48:53;;;;;;;4.90;2.20;;;;;;;11.17;88.09;101520.16;4972637;28;20522;-63
2021/11/09 05:51:38;;;;;;;;;;;;;;;11.23;89.08;101505.31;4973793;28;20065;-64
2021/11/09 05:54:23;;;;;;;1.88;1.45;;;;;;;11.23;89.45;101521.66;4958872;28;19918;-63
2021/11/09 05:57:08;;;;;;;;;;;;;;;11.23;89.23;101527.91;4967134;28;20062;-64
2021/11/09 05:59:52;;;;;;;3.05;2.22;;;;;;;11.14;87.86;101533.22;4969221;28;19914;-63
2021/11/09 06:02:38;;;;;;;1.67;1.02;;;;;;;11.21;88.63;101540.22;4965062;28;20062;-64
2021/11/09 06:05:23;;;;;;;2.22;1.45;;;;;;;11.20;88.86;101542.13;4968822;28;20054;-63
2021/11/09 06:08:08;;;;;;;3.35;1.70;;;;;;;11.10;86.88;101551.28;4966265;28;20046;-64
2021/11/09 06:10:54;;;;;;;;;;;;;;;11.15;88.40;101562.06;4973321;28;20049;-63
2021/11/09 06:13:39;;;;;;;5.60;2.65;;;;;;;11.08;87.92;101561.63;4964874;28;19914;-63
2021/11/09 06:16:24;;;;;;;2.50;1.60;;;;;;;11.12;88.22;101559.94;4975760;28;20057;-63
2021/11/09 06:19:09;;;;;;;6.00;1.65;;;;;;;11.13;88.59;101569.72;4983795;28;20044;-64
2021/11/09 06:21:54;;;;;;;2.88;1.08;;;;;;;11.14;88.90;101565.91;4988130;28;20053;-63
2021/11/09 06:24:39;;;;;;;4.07;1.20;;;;;;;11.17;89.42;101569.97;4987924;28;20053;-65
2021/11/09 06:27:24;;;;;;;3.15;1.30;;;;;;;11.15;89.55;101570.25;4986976;28;20065;-64
2021/11/09 06:30:09;;;;;;;;;;;;;;;11.20;89.74;101576.69;4989172;28;20057;-65
2021/11/09 06:32:53;;;;;;;2.50;1.55;;;;;;;11.20;89.84;101576.69;4992295;28;19913;-63
2021/11/09 06:35:38;;;;;;;3.55;1.17;;;;;;;11.21;90.15;101581.03;4984961;28;20134;-65
2021/11/09 06:38:23;;;;;;;4.57;1.33;;;;;;;11.22;90.29;101588.13;4982830;28;20058;-67
2021/11/09 06:41:08;;;;;;;1.33;0.90;;;;;;;11.20;90.40;101591.13;4989566;28;20050;-64
2021/11/09 06:43:53;;;;;;;;;;;;;;;11.23;90.28;101593.25;4988501;28;20034;-65
2021/11/09 06:46:38;;;;;;;9.23;2.15;;;;;;;11.21;89.89;101602.81;4977484;28;19913;-64
2021/11/09 06:49:23;;;;;;;5.95;1.98;;;;;;;11.22;89.62;101604.44;4998148;28;20061;-65
2021/11/09 06:52:08;;;;;;;;;;;;;;;11.23;90.12;101619.66;4995246;28;20407;-64
2021/11/09 06:54:52;;;;;;;2.17;1.52;;;;;;;11.21;89.96;101635.50;5000530;28;20162;-64
2021/11/09 06:57:38;;;;;;;4.70;1.42;;;;;;;11.22;90.50;101637.94;4998441;28;20049;-64
2021/11/09 07:00:23;;;;;;;8.27;1.80;;;;;;;11.25;90.65;101636.50;4996749;28;20049;-63
2021/11/09 07:03:08;;;;;;;5.68;1.90;;;;;;;11.23;90.24;101644.16;4994901;28;20049;-64
2021/11/09 07:05:53;;;;;;;7.78;2.88;;;;;;;11.20;89.37;101644.75;4997659;28;20049;-65
2021/11/09 07:08:38;;;;;;;6.22;2.80;;;;;;;11.15;88.43;101654.63;4987776;28;20058;-65
2021/11/09 07:11:24;;;;;;;4.43;1.75;;;;;;;11.15;87.90;101662.00;4992222;28;20053;-65
2021/11/09 07:14:09;;;;;;;15.05;4.43;;;;;;;11.10;87.26;101671.03;4972552;28;20122;-65
2021/11/09 07:16:54;;;;;;;3.88;1.63;;;;;;;11.12;87.62;101676.97;4989867;28;20054;-64
2021/11/09 07:19:40;;;;;;;5.40;2.05;;;;;;;11.01;85.13;101680.16;4991503;28;20053;-64
2021/11/09 07:22:25;;;;;;;11.13;3.35;;;;;;;11.06;86.29;101686.34;4974883;28;20411;-64
2021/11/09 07:25:11;;;;;;;5.90;1.70;;;;;;;11.09;86.32;101687.66;4973245;28;20065;-63
2021/11/09 07:27:56;;;;;;;4.75;2.10;;;;;;;11.07;86.16;101687.16;4994269;28;20510;-64
2021/11/09 07:30:46;;;;;;;4.95;2.15;;;;;;;11.07;86.34;101689.88;4993798;28;20522;-64
2021/11/09 07:33:32;;;;;;;5.88;1.83;;;;;;;11.15;88.04;101695.47;4989895;28;20049;-64
2021/11/09 07:36:18;;;;;;;4.80;2.13;;;;;;;11.15;87.98;101706.34;4985100;28;20053;-63
2021/11/09 07:39:05;;;;;;;5.47;2.15;;;;;;;11.13;87.92;101705.81;4984666;28;20049;-63
2021/11/09 07:41:51;;;;;;;5.70;2.65;;;;;;;11.12;88.25;101720.53;4979605;28;20050;-64
2021/11/09 07:44:36;;;;;;;7.05;3.33;;;;;;;11.08;87.90;101724.13;4987354;28;20046;-65
2021/11/09 07:47:22;;;;;;;8.10;3.17;;;;;;;10.93;82.69;101729.78;4980552;28;20053;-63
2021/11/09 07:50:06;;;;;;;9.65;2.58;;;;;;;10.94;83.40;101734.94;4973791;28;20122;-65
2021/11/09 07:52:56;;;;;;;6.05;2.75;;;;;;;10.87;81.82;101741.88;4979771;28;20411;-64
2021/11/09 08:02:07;;;;;;;6.80;2.15;;;;;;;10.99;87.35;101758.56;4992060;28;20066;-65
2021/11/09 08:05:05;;;;;;;6.50;2.65;;;;;;;10.95;86.52;101752.09;4971451;28;20058;-64
2021/11/09 08:07:57;;;;;;;10.73;2.67;;;;;;;10.90;84.96;101758.41;4979601;28;20050;-63
2021/11/09 08:10:43;;;;;;;5.88;2.50;;;;;;;10.90;85.54;101758.41;4980955;28;20049;-64
2021/11/09 08:13:27;;;;;;;5.80;2.88;;;;;;;10.81;81.23;101760.16;4983252;28;20042;-63
2021/11/09 08:16:13;;;;;;;7.25;2.30;;;;;;;10.81;80.63;101762.06;4977860;28;20053;-64
2021/11/09 08:18:58;;;;;;;5.15;3.03;;;;;;;10.80;81.16;101768.63;4988306;28;20049;-63
2021/11/09 08:21:43;;;;;;;3.88;1.90;;;;;;;10.73;78.79;101768.97;4994944;28;20057;-63
2021/11/09 08:24:28;;;;;;;4.93;2.78;;;;;;;10.70;77.47;101764.09;4993516;28;20376;-65
2021/11/09 08:27:14;;;;;;;7.70;2.42;;;;;;;10.68;75.42;101769.00;4993373;28;20049;-63
2021/11/09 08:29:59;;;;;;;9.60;2.97;;;;;;;10.69;76.04;101779.63;4995119;28;20049;-64
2021/11/09 08:32:45;;;;;;;6.03;2.10;;;;;;;10.66;75.42;101776.69;4993139;28;20068;-63
2021/11/09 08:35:31;;;;;;;13.15;3.30;;;;;;;10.67;74.83;101773.66;4996801;28;20053;-65
2021/11/09 08:38:16;;;;;;;8.63;3.60;;;;;;;10.68;74.33;101780.72;4975849;28;20422;-63
2021/11/09 08:41:02;;;;;;;8.57;1.95;;;;;;;10.70;74.53;101788.59;4973672;28;20053;-63
2021/11/09 08:44:04;;;;;;;3.80;2.53;;;;;;;10.70;74.50;101778.53;4977323;28;20054;-62
2021/11/09 08:46:51;;;;;;;4.30;2.50;;;;;;;10.71;73.92;101788.31;4974706;28;20046;-65
2021/11/09 08:49:36;;;;;;;10.30;2.58;;;;;;;10.72;74.16;101787.19;4978407;28;20061;-63
2021/11/09 08:52:23;;;;;;;7.28;2.92;;;;;;;10.73;74.29;101782.56;4976680;28;20053;-63
2021/11/09 09:06:59;;;;;;;6.82;2.97;;;;;;;10.82;73.37;101797.13;4993464;28;20145;-63
2021/11/09 09:09:44;;;;;;;4.07;2.10;;;;;;;10.87;74.37;101805.25;4994014;28;20045;-63
2021/11/09 09:12:30;;;;;;;3.60;1.90;;;;;;;10.90;74.09;101803.88;4997708;28;20049;-64
2021/11/09 09:15:18;;;;;;;6.32;2.03;;;;;;;10.93;73.04;101804.09;4995638;28;20404;-65
2021/11/09 09:18:05;;;;;;;7.22;3.20;;;;;;;10.96;73.09;101810.88;4994064;28;20050;-66
2021/11/09 09:20:58;;;;;;;6.30;3.40;;;;;;;10.95;72.20;101801.91;4997823;28;20053;-64
2021/11/09 09:23:48;;;;;;;4.70;2.42;;;;;;;11.00;71.99;101803.75;4995467;28;20041;-64
2021/11/09 09:26:39;;;;;;;4.22;2.67;;;;;;;11.02;70.70;101813.22;4993401;28;20057;-63
2021/11/09 09:53:57;;;;;;;10.43;3.30;;;;;;;14.42;53.58;101835.72;4993169;28;20050;-64
2021/11/09 09:56:51;;;;;;;3.88;1.95;;;;;;;14.32;52.43;101835.13;4993612;28;20053;-65
2021/11/09 09:59:38;;;;;;;7.13;2.70;;;;;;;14.40;54.59;101835.22;4993832;28;20065;-64
2021/11/09 10:02:27;;;;;;;4.10;2.20;;;;;;;14.81;52.79;101839.59;4999873;28;20057;-64
2021/11/09 10:05:14;;;;;;;6.72;2.80;;;;;;;15.32;50.73;101853.47;4999398;28;20518;-65
2021/11/09 10:07:59;;;;;;;5.40;2.50;;;;;;;15.75;49.32;101847.25;4997486;28;20050;-64
2021/11/09 10:10:47;;;;;;;5.45;2.50;;;;;;;15.94;48.12;101846.94;5001227;28;20053;-63
2021/11/09 10:13:39;;;;;;;3.38;2.00;;;;;;;15.80;48.20;101850.63;4999431;28;20049;-65
2021/11/09 10:16:25;;;;;;;4.93;2.58;;;;;;;15.93;50.08;101837.91;4996840;28;20057;-63
2021/11/09 10:19:10;;;;;;;3.97;2.13;;;;;;;15.94;47.13;101839.50;5000691;28;20045;-63
2021/11/09 10:21:56;;;;;;;;;;;;;;;16.01;47.65;101853.53;4999269;28;20045;-63
2021/11/09 10:24:40;;;;;;;7.55;2.58;;;;;;;15.54;48.64;101844.34;4997248;28;20298;-63
2021/11/09 10:27:27;;;;;;;;;;;;;;;15.39;49.71;101845.56;5001307;28;20053;-65
2021/11/09 10:30:16;;;;;;;7.55;3.33;;;;;;;15.27;49.33;101837.16;4995222;28;19914;-63
2021/11/09 10:33:00;;;;;;;2.35;1.48;;;;;;;15.34;46.37;101853.13;4988936;28;20045;-64
2021/11/09 10:35:46;;;;;;;;;;;;;;;15.24;48.74;101856.16;4995102;28;20530;-63
2021/11/09 10:38:32;;;;;;;7.40;2.70;;;;;;;15.50;50.22;101856.22;4984971;28;19913;-64
2021/11/09 10:41:18;;;;;;;5.88;2.75;;;;;;;15.38;49.53;101854.13;4987464;28;20041;-65
2021/11/09 10:44:09;;;;;;;8.60;1.92;;;;;;;15.45;48.25;101856.38;4989760;28;20049;-63
2021/11/09 10:47:13;;;;;;;3.85;1.77;;;;;;;15.45;46.62;101848.16;4988523;28;20041;-63
2021/11/09 10:50:00;;;;;;;2.25;1.33;;;;;;;15.70;46.92;101845.47;4993333;28;20053;-65
2021/11/09 10:52:46;;;;;;;5.13;2.15;;;;;;;15.52;47.29;101854.00;4999058;28;20049;-65
2021/11/09 10:55:36;;;;;;;;;;;;;;;15.33;48.98;101851.53;4997034;28;20045;-64
2021/11/09 11:04:57;;;;;;;4.32;2.55;;;;;;;15.98;45.56;101848.69;4935376;28;20507;-64
2021/11/09 11:07:53;;;;;;;4.97;2.28;;;;;;;16.34;44.47;101853.00;4998406;28;20045;-65
2021/11/09 11:10:38;;;;;;;6.05;2.45;;;;;;;16.45;44.57;101846.06;4981389;28;20053;-65
2021/11/09 11:13:24;;;;;;;6.50;2.65;;;;;;;16.25;44.72;101844.81;4999148;28;20049;-64
2021/11/09 11:16:11;;;;;;;8.30;3.40;;;;;;;15.80;45.58;101833.38;5012815;23;20065;-65
2021/11/09 11:18:57;;;;;;;6.30;2.47;;;;;;;16.04;44.87;101833.69;4971070;28;20113;-65
2021/11/09 11:21:42;;;;;;;11.98;3.50;;;;;;;16.05;45.99;101840.00;4956957;28;20050;-65
2021/11/09 11:24:27;;;;;;;;;;;;;;;16.11;43.58;101853.19;4964072;28;20058;-65
2021/11/09 11:27:14;;;;;;;5.57;1.37;;;;;;;15.92;45.89;101852.72;4956497;28;19914;-65
2021/11/09 11:29:59;;;;;;;10.30;3.95;;;;;;;15.39;48.13;101858.44;4964287;28;20432;-65
2021/11/09 11:32:45;;;;;;;6.07;2.78;;;;;;;15.14;46.66;101865.47;4966801;28;20047;-62
2021/11/09 11:35:30;;;;;;;5.93;2.15;;;;;;;15.00;48.38;101873.00;4968296;28;20050;-64
2021/11/09 11:38:16;;;;;;;;;;;;;;;15.00;48.83;101870.28;4962484;28;20066;-65
2021/11/09 11:41:03;;;;;;;3.80;1.25;;;;;;;14.77;45.65;101864.06;4963031;28;19918;-63
2021/11/09 11:43:47;;;;;;;1.73;1.05;;;;;;;14.61;46.46;101862.06;4974259;28;20041;-63
2021/11/09 11:46:32;;;;;;;;;;;;;;;14.37;46.26;101855.00;4965126;28;20520;-63
2021/11/09 11:49:19;;;;;;;4.78;1.40;;;;;;;14.09;46.50;101867.97;4966738;28;20384;-63
2021/11/09 11:52:07;;;;;;;5.15;2.30;;;;;;;14.09;46.21;101867.97;4964711;28;20046;-63
2021/11/09 11:55:04;;;;;;;2.40;1.35;;;;;;;14.12;45.60;101855.59;4945951;28;20289;-63
2021/11/09 11:57:53;;;;;;;1.48;0.95;;;;;;;13.95;46.15;101869.16;4960366;28;20046;-63
2021/11/09 12:00:56;;;;;;;1.85;0.93;;;;;;;14.03;47.18;101884.81;4969793;28;20523;-63
2021/11/09 12:03:41;;;;;;;4.75;0.95;;;;;;;14.14;46.86;101875.25;4963156;28;20045;-63
2021/11/09 12:06:27;;;;;;;;;;;;;;;13.99;47.46;101867.41;4969794;28;20055;-63
2021/11/09 12:09:31;;;;;;;2.85;0.90;;;;;;;13.94;45.62;101865.59;4963212;28;19914;-63
2021/11/09 12:12:20;;;;;;;3.67;1.40;;;;;;;13.78;47.16;101866.25;4959674;28;20054;-62
2021/11/09 12:15:07;;;;;;;7.78;2.35;;;;;;;13.72;46.90;101868.28;4973957;28;20038;-61
2021/11/09 12:17:52;;;;;;;3.83;1.38;;;;;;;13.71;48.42;101875.69;4972381;28;20411;-61
2021/11/09 12:20:40;;;;;;;;;;;;;;;13.80;47.43;101889.44;4969821;28;20053;-61
2021/11/09 12:23:30;;;;;;;2.15;1.50;;;;;;;13.62;48.59;101883.00;4971817;28;20383;-61
2021/11/09 12:26:38;;;;;;;4.15;1.58;;;;;;;13.65;49.92;101885.13;4968253;28;20523;-61
2021/11/09 12:29:35;;;;;;;3.80;1.60;;;;;;;13.45;48.90;101876.56;4974125;28;20042;-61
2021/11/09 12:32:20;;;;;;;9.90;2.40;;;;;;;13.53;49.83;101871.19;4976390;28;20042;-61
2021/11/09 12:35:22;;;;;;;3.25;1.50;;;;;;;13.57;49.48;101883.09;4970115;28;20046;-61
2021/11/09 12:38:12;;;;;;;7.60;1.50;;;;;;;13.54;47.23;101875.53;4966766;28;20042;-62
2021/11/09 12:41:01;;;;;;;1.75;1.38;;;;;;;13.63;47.42;101884.63;4967889;28;20050;-62
2021/11/09 12:43:49;;;;;;;4.32;1.50;;;;;;;13.99;48.29;101886.53;4968841;28;20046;-62
2021/11/09 12:46:38;;;;;;;2.65;1.25;;;;;;;14.12;47.67;101885.66;4971988;28;20412;-62
2021/11/09 12:49:27;;;;;;;3.88;1.65;;;;;;;14.20;47.95;101887.69;4957241;28;20440;-62
2021/11/09 12:52:15;;;;;;;4.47;2.03;;;;;;;13.98;47.46;101888.47;4969935;28;20038;-62
2021/11/09 12:55:10;;;;;;;4.18;2.30;;;;;;;13.83;48.25;101891.56;4969002;28;20050;-61
2021/11/09 12:57:55;;;;;;;14.43;5.25;;;;;;;13.99;53.69;101890.09;4970760;28;20045;-62
2021/11/09 13:00:45;;;;;;;19.10;6.35;;;;;;;13.93;60.14;101885.84;4970191;28;20057;-63
2021/11/09 13:03:34;;;;;;;20.88;8.18;;;;;;;13.82;62.98;101872.72;4967095;28;20050;-62
2021/11/09 13:06:43;;;;;;;25.13;7.03;;;;;;;13.79;64.75;101871.41;4974772;28;20046;-63
2021/11/09 13:09:36;;;;;;;52.88;10.55;;;;;;;13.70;65.93;101868.63;4959696;28;20042;-62
2021/11/09 13:12:25;;;;;;;199.60;33.92;;;;;;;13.67;67.33;101871.13;4977826;28;20484;-62
2021/11/09 13:15:16;;;;;;;77.47;12.80;;;;;;;13.60;62.51;101860.66;4953027;28;20508;-63
2021/11/09 13:18:04;;;;;;;48.90;9.73;;;;;;;13.55;62.96;101868.16;4956062;28;20055;-62
2021/11/09 13:20:51;;;;;;;47.08;10.70;;;;;;;13.49;61.24;101875.63;4957850;28;20046;-62
2021/11/09 13:23:36;;;;;;;80.05;18.65;;;;;;;13.49;64.39;101866.63;4956099;29;20067;-62
2021/11/09 13:26:21;;;;;;;62.35;13.85;;;;;;;13.49;65.42;101878.38;4955450;28;20500;-62
2021/11/09 13:29:07;;;;;;;33.00;6.78;;;;;;;13.47;66.91;101880.59;4968339;28;20047;-62
2021/11/09 13:31:52;;;;;;;59.28;12.20;;;;;;;13.46;67.84;101880.91;4969108;28;20054;-62
2021/11/09 13:34:38;;;;;;;;;;;;;;;13.46;65.20;101889.13;4958918;28;20046;-62
2021/11/09 13:37:22;;;;;;;8.23;2.88;;;;;;;13.42;61.97;101888.09;4966890;28;19922;-62
2021/11/09 13:40:08;;;;;;;;;;;;;;;13.46;64.34;101883.66;4979830;28;20046;-62
2021/11/09 13:43:04;;;;;;;23.63;6.13;;;;;;;13.46;65.34;101887.16;4976352;28;19914;-62
2021/11/09 13:46:01;;;;;;;14.52;3.55;;;;;;;13.47;65.29;101897.00;4969028;28;20054;-62
2021/11/09 13:48:49;;;;;;;12.10;3.65;;;;;;;13.41;64.02;101892.75;4959357;28;20046;-62
2021/11/09 13:51:58;;;;;;;20.73;7.07;;;;;;;13.44;66.16;101905.00;4962729;28;20412;-62
2021/11/09 13:54:46;;;;;;;29.13;5.72;;;;;;;13.43;67.99;101906.09;4959536;28;20047;-62
2021/11/09 13:57:31;;;;;;;26.25;5.32;;;;;;;13.44;68.00;101908.53;4965214;28;20555;-62
2021/11/09 14:00:25;;;;;;;;;;;;;;;13.47;69.49;101909.84;4974931;28;20045;-62
2021/11/09 14:03:29;;;;;;;27.48;5.78;;;;;;;13.48;68.85;101912.28;4969260;28;19914;-62
2021/11/09 14:09:43;;;;;;;23.00;6.30;;;;;;;13.51;70.15;101921.81;4971767;28;20053;-62
2021/11/09 14:18:23;;;;;;;19.65;5.97;;;;;;;13.58;72.18;101898.41;4969429;28;20166;-60
2021/11/09 14:21:08;;;;;;;28.13;8.10;;;;;;;13.60;72.22;101915.31;4978051;28;20620;-62
2021/11/09 14:23:53;;;;;;;;;;;;;;;13.64;72.75;101921.78;4967995;28;20543;-62
2021/11/09 14:26:39;;;;;;;12.15;4.75;;;;;;;13.65;73.02;101933.53;4957370;28;19914;-62
2021/11/09 14:29:25;;;;;;;20.05;6.38;;;;;;;13.67;72.94;101932.09;4946888;29;20050;-62
2021/11/09 14:32:19;;;;;;;19.75;7.47;;;;;;;13.72;73.05;101920.22;4959428;28;20069;-62
2021/11/09 14:35:34;;;;;;;19.98;5.63;;;;;;;13.74;73.23;101926.22;4965433;28;20047;-61
2021/11/09 14:38:23;;;;;;;16.75;5.20;;;;;;;13.76;73.29;101924.00;4959906;28;20074;-61
2021/11/09 14:41:20;;;;;;;14.90;5.55;;;;;;;13.77;73.57;101935.72;4957466;28;20077;-61
2021/11/09 14:44:08;;;;;;;7.45;3.10;;;;;;;13.78;73.55;101940.06;4960487;28;20054;-62
2021/11/09 14:46:56;;;;;;;16.55;6.50;;;;;;;13.79;72.95;101933.50;4957597;28;20058;-61
2021/11/09 14:49:49;;;;;;;15.30;5.45;;;;;;;13.80;73.39;101930.47;4962527;28;20053;-62
2021/11/09 14:52:37;;;;;;;21.00;5.78;;;;;;;13.83;73.72;101929.03;4973805;28;20054;-61
2021/11/09 14:55:31;;;;;;;17.33;5.32;;;;;;;13.86;73.70;101921.03;4970060;28;20054;-61
2021/11/09 14:58:34;;;;;;;16.98;5.10;;;;;;;13.90;73.92;101941.16;4980623;28;20069;-62
2021/11/09 15:01:44;;;;;;;15.90;4.97;;;;;;;13.93;73.93;101939.72;4978480;28;20523;-62
2021/11/09 15:04:44;;;;;;;13.23;5.65;;;;;;;13.94;74.43;101949.56;4980771;28;20050;-62
2021/11/09 15:07:36;;;;;;;16.05;5.25;;;;;;;13.94;74.17;101942.16;4963314;28;20519;-62
2021/11/09 15:10:50;;;;;;;15.25;4.97;;;;;;;13.97;74.20;101938.00;4961620;28;20054;-62
2021/11/09 15:28:19;;;;;;;12.52;4.82;;;;;;;14.03;74.09;101953.19;4969771;28;20046;-61
2021/11/09 15:31:07;;;;;;;11.07;4.70;;;;;;;14.03;74.37;101964.13;4963667;28;20050;-61
2021/11/09 15:34:00;;;;;;;14.93;5.38;;;;;;;14.02;74.53;101963.31;4969873;28;20538;-62
2021/11/09 15:39:31;;;;;;;18.98;6.05;;;;;;;14.02;74.75;101981.63;4961405;28;20417;-62
2021/11/09 15:42:17;;;;;;;;;;;;;;;14.02;75.01;101981.63;4976668;28;20408;-62
2021/11/09 15:45:01;;;;;;;15.65;5.00;;;;;;;13.99;74.69;101979.53;4970319;28;19914;-62
2021/11/09 15:47:46;;;;;;;15.98;4.55;;;;;;;13.98;75.05;101975.16;4971962;28;20049;-62